Terminal Aerodrome Forecast
Issued by NWS Paducah, KY

Home | Current Version | Previous Version | Text Only | Print | Product List | Glossary On
Versions: 1 2 3 4 5 6 7 8 9 10 11 12 13 14 15 16
000
FTUS43 KPAH 281700 RRA
TAFPAH
TAF
KPAH 281740Z 2818/2918 19010G18KT P6SM SKC
     FM290000 19008KT P6SM FEW150
     FM291000 19008KT P6SM BKN020 WS017/22055KT
     FM291500 20013G20KT 6SM -DZ BR BKN015=

USA.gov is the U.S. government's official web portal to all federal, state and local government web resources and services.